< < Back
Terminal Aerodrome Forecast


Current Version              Previous Versions:   1  2  3  4  5  6  7  8  9  

Terminal Aerodrome Forecast

796
FTUS44 KBMX 290500
TAFANB
TAF
KANB 290532Z 2906/3006 00000KT P6SM FEW250
     FM291500 18006KT P6SM FEW050=

Latest METAR

923
SAUS70 KWBC 300800 RRC
MTRANB
METAR KANB 300753Z AUTO 10003KT 10SM CLR 23/19 A3008 RMK AO2 SLP174
T02280194


USA.gov is the U.S. government's official web portal to all federal, state and local government web resources and services.